createdAt,value
2017-10-07T00:00:11.330Z,5.57
2017-10-07T00:02:39.588Z,12.02
2017-10-07T00:05:07.903Z,6.57
2017-10-07T00:07:36.193Z,5.60
2017-10-07T00:10:04.468Z,8.05
2017-10-07T00:12:32.733Z,4.12
2017-10-07T00:15:01.071Z,6.45
2017-10-07T00:17:29.360Z,11.55
2017-10-07T00:19:57.630Z,5.93
2017-10-07T00:22:25.936Z,6.90
2017-10-07T00:24:54.224Z,7.85
2017-10-07T00:27:22.541Z,6.28
2017-10-07T00:29:51.568Z,7.45
2017-10-07T00:32:19.898Z,9.90
2017-10-07T00:34:48.211Z,8.25
2017-10-07T00:37:17.096Z,5.18
2017-10-07T00:39:45.568Z,6.95
2017-10-07T00:42:15.123Z,7.22
2017-10-07T00:44:43.480Z,7.05
2017-10-07T00:47:12.498Z,8.10
2017-10-07T00:49:40.784Z,6.93
2017-10-07T00:52:09.055Z,10.48
2017-10-07T00:54:37.395Z,8.05
2017-10-07T00:57:05.647Z,6.45
2017-10-07T00:59:33.910Z,15.45
2017-10-07T01:02:02.958Z,7.00
2017-10-07T01:04:31.215Z,6.87
2017-10-07T01:06:59.491Z,7.05
2017-10-07T01:09:27.755Z,6.75
2017-10-07T01:11:56.043Z,5.20
2017-10-07T01:14:25.063Z,5.72
2017-10-07T01:16:53.322Z,5.25
2017-10-07T01:19:21.618Z,9.95
2017-10-07T01:21:49.879Z,6.05
2017-10-07T01:24:18.163Z,5.22
2017-10-07T01:26:47.187Z,6.53
2017-10-07T01:29:15.491Z,9.48
2017-10-07T01:31:43.751Z,5.20
2017-10-07T01:34:12.035Z,8.20
2017-10-07T01:36:41.102Z,6.40
2017-10-07T01:39:09.371Z,6.93
2017-10-07T01:41:38.411Z,9.75
2017-10-07T01:44:06.683Z,10.25
2017-10-07T01:46:35.001Z,14.52
2017-10-07T01:49:03.267Z,7.75
2017-10-07T01:51:31.533Z,10.55
2017-10-07T01:53:59.815Z,5.57
2017-10-07T01:56:28.074Z,6.65
2017-10-07T01:58:56.351Z,8.80
2017-10-07T02:01:24.619Z,5.15
2017-10-07T02:03:52.890Z,5.80
2017-10-07T02:06:21.917Z,5.35
2017-10-07T02:08:50.223Z,10.02
2017-10-07T02:11:19.250Z,5.90
2017-10-07T02:13:47.506Z,5.70
2017-10-07T02:16:15.782Z,8.77
2017-10-07T02:18:44.044Z,10.32
2017-10-07T02:21:12.355Z,8.25
2017-10-07T02:23:40.619Z,7.40
2017-10-07T02:26:08.871Z,11.55
2017-10-07T02:28:37.147Z,10.45
2017-10-07T02:31:06.179Z,11.48
2017-10-07T02:33:34.454Z,10.85
2017-10-07T02:36:02.715Z,11.50
2017-10-07T02:38:31.006Z,8.38
2017-10-07T02:41:00.028Z,6.37
2017-10-07T02:43:28.286Z,10.30
2017-10-07T02:45:56.558Z,9.20
2017-10-07T02:48:24.815Z,10.77
2017-10-07T02:50:53.091Z,7.50
2017-10-07T02:53:21.348Z,12.65
2017-10-07T02:55:49.842Z,9.27
2017-10-07T02:58:18.099Z,6.37
2017-10-07T03:00:46.358Z,10.48
2017-10-07T03:03:14.639Z,9.77
2017-10-07T03:05:43.671Z,11.10
2017-10-07T03:08:11.951Z,7.05
2017-10-07T03:10:40.202Z,8.90
2017-10-07T03:13:08.511Z,7.15
2017-10-07T03:15:37.570Z,6.45
2017-10-07T03:18:05.831Z,10.10
2017-10-07T03:20:34.112Z,11.20
2017-10-07T03:23:03.138Z,10.50
2017-10-07T03:25:31.415Z,8.23
2017-10-07T03:27:59.670Z,8.68
2017-10-07T03:30:27.980Z,8.35
2017-10-07T03:32:57.001Z,9.10
2017-10-07T03:35:25.254Z,9.00
2017-10-07T03:37:53.530Z,7.00
2017-10-07T03:40:21.774Z,7.30
2017-10-07T03:42:50.050Z,8.85
2017-10-07T03:45:18.301Z,8.07
2017-10-07T03:47:46.583Z,10.82
2017-10-07T03:50:14.838Z,6.72
2017-10-07T03:52:43.098Z,8.57
2017-10-07T03:55:11.367Z,6.75
2017-10-07T03:57:39.622Z,8.93
2017-10-07T04:00:07.895Z,6.57
2017-10-07T04:02:36.159Z,11.90
2017-10-07T04:05:04.432Z,6.65
2017-10-07T04:07:33.452Z,7.40
2017-10-07T04:10:01.754Z,8.43
2017-10-07T04:12:30.075Z,7.57
2017-10-07T04:14:58.338Z,5.57
2017-10-07T04:17:26.623Z,9.55
2017-10-07T04:19:54.879Z,8.90
2017-10-07T04:22:23.146Z,9.70
2017-10-07T04:24:51.411Z,7.35
2017-10-07T04:27:19.715Z,7.78
2017-10-07T04:29:48.731Z,10.05
2017-10-07T04:32:16.996Z,11.95
2017-10-07T04:34:45.266Z,10.00
2017-10-07T04:37:13.523Z,7.00
2017-10-07T04:39:41.791Z,9.73
2017-10-07T04:42:10.051Z,9.20
2017-10-07T04:44:38.355Z,7.45
2017-10-07T04:47:07.387Z,6.37
2017-10-07T04:49:35.644Z,9.18
2017-10-07T04:52:03.918Z,6.15
2017-10-07T04:54:32.171Z,6.25
2017-10-07T04:57:00.443Z,7.15
2017-10-07T04:59:28.707Z,11.30
2017-10-07T05:01:57.004Z,9.77
2017-10-07T05:04:26.023Z,6.18
2017-10-07T05:06:54.283Z,11.40
2017-10-07T05:09:22.570Z,8.43
2017-10-07T05:11:50.831Z,6.22
2017-10-07T05:14:19.107Z,5.05
2017-10-07T05:16:48.138Z,7.90
2017-10-07T05:19:16.407Z,9.10
2017-10-07T05:21:44.719Z,6.85
2017-10-07T05:24:13.740Z,9.70
2017-10-07T05:26:42.011Z,6.75
2017-10-07T05:29:10.279Z,6.03
2017-10-07T05:31:38.547Z,6.93
2017-10-07T05:34:06.802Z,9.02
2017-10-07T05:36:35.101Z,9.50
2017-10-07T05:39:04.122Z,5.20
2017-10-07T05:41:32.374Z,5.65
2017-10-07T05:44:00.650Z,5.53
2017-10-07T05:46:28.907Z,8.02
2017-10-07T05:48:57.178Z,8.68
2017-10-07T05:51:25.431Z,6.00
2017-10-07T05:53:53.726Z,6.78
2017-10-07T05:56:21.992Z,11.07
2017-10-07T05:58:51.018Z,4.87
2017-10-07T06:01:19.287Z,5.32
2017-10-07T06:03:47.546Z,4.30
2017-10-07T06:06:15.828Z,7.07
2017-10-07T06:08:44.083Z,4.57
2017-10-07T06:11:12.369Z,5.10
2017-10-07T06:13:40.618Z,5.82
2017-10-07T06:16:08.883Z,4.50
2017-10-07T06:18:37.159Z,5.55
2017-10-07T06:21:05.432Z,8.88
2017-10-07T06:23:33.704Z,7.32
2017-10-07T06:26:02.727Z,5.82
2017-10-07T06:28:31.014Z,6.43
2017-10-07T06:30:59.266Z,6.15
2017-10-07T06:33:27.520Z,6.45
2017-10-07T06:35:55.794Z,9.10
2017-10-07T06:38:24.065Z,6.65
2017-10-07T06:40:53.843Z,7.18
2017-10-07T06:43:22.102Z,9.20
2017-10-07T06:45:50.393Z,7.03
2017-10-07T06:48:19.326Z,5.47
2017-10-07T06:50:47.583Z,4.37
2017-10-07T06:53:15.859Z,6.28
2017-10-07T06:55:44.136Z,6.07
2017-10-07T06:58:12.399Z,7.57
2017-10-07T07:00:42.162Z,7.40
2017-10-07T07:03:10.451Z,5.55
2017-10-07T07:05:38.743Z,5.32
2017-10-07T07:08:07.768Z,9.10
2017-10-07T07:10:36.054Z,6.37
2017-10-07T07:13:04.323Z,7.35
2017-10-07T07:15:32.595Z,4.65
2017-10-07T07:18:01.622Z,5.20
2017-10-07T07:20:30.134Z,6.37
2017-10-07T07:22:58.403Z,4.65
2017-10-07T07:25:26.664Z,3.42
2017-10-07T07:27:55.711Z,5.95
2017-10-07T07:30:23.975Z,5.72
2017-10-07T07:32:52.250Z,3.70
2017-10-07T07:35:20.568Z,4.57
2017-10-07T07:37:48.874Z,6.32
2017-10-07T07:40:17.143Z,4.10
2017-10-07T07:42:45.411Z,7.00
2017-10-07T07:45:14.455Z,3.53
2017-10-07T07:47:42.727Z,5.32
2017-10-07T07:50:11.068Z,2.45
2017-10-07T07:52:39.335Z,3.40
2017-10-07T07:55:07.627Z,3.08
2017-10-07T07:57:35.893Z,3.08
2017-10-07T08:00:04.157Z,7.68
2017-10-07T08:02:32.434Z,3.42
2017-10-07T08:05:00.709Z,4.97
2017-10-07T08:07:28.983Z,5.35
2017-10-07T08:09:57.248Z,6.10
2017-10-07T08:12:25.765Z,6.30
2017-10-07T08:14:54.023Z,3.20
2017-10-07T08:17:23.786Z,5.22
2017-10-07T08:19:52.063Z,5.40
2017-10-07T08:22:20.363Z,2.15
2017-10-07T08:24:50.886Z,2.62
2017-10-07T08:27:19.152Z,3.70
2017-10-07T08:29:47.462Z,3.45
2017-10-07T08:32:16.399Z,5.93
2017-10-07T08:34:51.279Z,5.80
2017-10-07T08:37:22.592Z,3.45
2017-10-07T08:39:50.876Z,3.47
2017-10-07T08:42:19.926Z,4.75
2017-10-07T08:44:48.204Z,2.97
2017-10-07T08:47:17.259Z,8.68
2017-10-07T08:49:45.525Z,6.65
2017-10-07T08:52:13.807Z,4.30
2017-10-07T08:54:42.075Z,3.28
2017-10-07T08:57:10.542Z,2.70
2017-10-07T08:59:47.235Z,5.50
2017-10-07T09:02:16.479Z,8.23
2017-10-07T09:04:47.154Z,7.10
2017-10-07T09:07:15.617Z,4.72
2017-10-07T09:09:45.435Z,5.05
2017-10-07T09:12:14.718Z,2.65
2017-10-07T09:14:43.017Z,2.70
2017-10-07T09:17:15.479Z,2.65
2017-10-07T09:19:43.895Z,4.00
2017-10-07T09:22:12.155Z,6.87
2017-10-07T09:24:40.439Z,3.78
2017-10-07T09:27:08.713Z,6.40
2017-10-07T09:29:37.170Z,4.18
2017-10-07T09:32:05.427Z,4.78
2017-10-07T09:34:33.691Z,5.03
2017-10-07T09:37:01.972Z,8.75
2017-10-07T09:39:31.006Z,2.67
2017-10-07T09:41:59.291Z,5.18
2017-10-07T09:44:29.077Z,7.37
2017-10-07T09:46:57.347Z,5.45
2017-10-07T09:49:25.610Z,5.12
2017-10-07T09:51:53.995Z,2.85
2017-10-07T09:54:22.279Z,3.45
2017-10-07T09:56:50.567Z,5.45
2017-10-07T09:59:18.854Z,4.15
2017-10-07T10:01:47.119Z,3.55
2017-10-07T10:04:15.416Z,4.75
2017-10-07T10:06:44.431Z,4.07
2017-10-07T10:09:12.723Z,3.78
2017-10-07T10:11:41.764Z,9.32
2017-10-07T10:14:10.039Z,3.75
2017-10-07T10:16:38.297Z,2.12
2017-10-07T10:19:06.579Z,3.28
2017-10-07T10:21:34.834Z,3.42
2017-10-07T10:24:03.119Z,4.80
2017-10-07T10:26:32.146Z,2.67
2017-10-07T10:29:00.418Z,2.28
2017-10-07T10:31:28.692Z,2.85
2017-10-07T10:33:56.970Z,2.90
2017-10-07T10:36:26.001Z,4.75
2017-10-07T10:38:54.548Z,9.80
2017-10-07T10:41:23.195Z,1.98
2017-10-07T10:43:51.629Z,2.10
2017-10-07T10:46:19.915Z,7.28
2017-10-07T10:48:48.947Z,3.85
2017-10-07T10:51:17.239Z,2.05
2017-10-07T10:53:45.494Z,2.85
2017-10-07T10:56:13.768Z,3.45
2017-10-07T10:58:42.041Z,1.77
2017-10-07T11:01:10.323Z,4.18
2017-10-07T11:03:39.353Z,2.10
2017-10-07T11:06:07.631Z,3.95
2017-10-07T11:08:35.894Z,1.77
2017-10-07T11:11:04.191Z,4.37
2017-10-07T11:13:32.466Z,3.03
2017-10-07T11:16:00.731Z,2.75
2017-10-07T11:18:29.144Z,3.28
2017-10-07T11:20:58.127Z,3.30
2017-10-07T11:23:26.464Z,2.35
2017-10-07T11:25:57.064Z,1.80
2017-10-07T11:28:29.102Z,1.95
2017-10-07T11:31:00.747Z,4.75
2017-10-07T11:33:32.312Z,3.47
2017-10-07T11:36:06.903Z,6.65
2017-10-07T11:38:37.358Z,1.70
2017-10-07T11:41:10.070Z,2.22
2017-10-07T11:43:38.347Z,4.10
2017-10-07T11:46:06.610Z,3.58
2017-10-07T11:48:34.882Z,8.48
2017-10-07T11:51:03.150Z,3.72
2017-10-07T11:53:33.079Z,4.35
2017-10-07T11:56:01.327Z,2.70
2017-10-07T11:58:30.354Z,1.67
2017-10-07T12:00:58.634Z,7.00
2017-10-07T12:03:26.899Z,2.83
2017-10-07T12:05:55.179Z,4.57
2017-10-07T12:08:24.203Z,2.17
2017-10-07T12:10:52.478Z,7.30
2017-10-07T12:13:20.765Z,2.53
2017-10-07T12:15:49.256Z,3.50
2017-10-07T12:18:18.288Z,4.65
2017-10-07T12:20:46.567Z,3.67
2017-10-07T12:23:15.087Z,2.28
2017-10-07T12:25:43.450Z,2.45
2017-10-07T12:28:11.743Z,4.15
2017-10-07T12:30:40.028Z,3.20
2017-10-07T12:33:08.307Z,1.92
2017-10-07T12:35:37.342Z,3.10
2017-10-07T12:38:05.634Z,3.90
2017-10-07T12:40:33.899Z,2.40
2017-10-07T12:43:02.911Z,2.90
2017-10-07T12:45:31.195Z,2.00
2017-10-07T12:47:59.459Z,2.12
2017-10-07T12:50:27.750Z,3.10
2017-10-07T12:52:56.052Z,6.03
2017-10-07T12:55:25.087Z,5.47
2017-10-07T12:57:53.392Z,3.15
2017-10-07T13:00:21.669Z,4.10
2017-10-07T13:02:49.919Z,2.95
2017-10-07T13:05:18.200Z,2.20
2017-10-07T13:07:46.455Z,3.30
2017-10-07T13:10:14.964Z,3.80
2017-10-07T13:12:44.147Z,3.33
2017-10-07T13:15:12.438Z,3.62
2017-10-07T13:17:41.473Z,4.32
2017-10-07T13:20:09.971Z,2.37
2017-10-07T13:22:39.011Z,3.37
2017-10-07T13:25:07.287Z,4.50
2017-10-07T13:27:35.566Z,2.60
2017-10-07T13:30:03.838Z,5.15
2017-10-07T13:32:32.904Z,3.75
2017-10-07T13:35:02.292Z,3.35
2017-10-07T13:37:30.576Z,2.67
2017-10-07T13:39:59.602Z,4.00
2017-10-07T13:42:31.015Z,1.20
2017-10-07T13:44:59.287Z,2.22
2017-10-07T13:47:27.573Z,1.52
2017-10-07T13:49:55.854Z,1.95
2017-10-07T13:52:24.123Z,1.90
2017-10-07T13:54:53.177Z,1.50
2017-10-07T13:57:21.451Z,2.12
2017-10-07T13:59:49.728Z,5.85
2017-10-07T14:02:18.763Z,2.58
2017-10-07T14:04:47.034Z,1.65
2017-10-07T14:07:15.296Z,4.53
2017-10-07T14:09:43.575Z,1.77
2017-10-07T14:12:11.854Z,3.53
2017-10-07T14:14:40.891Z,1.67
2017-10-07T14:17:09.150Z,2.65
2017-10-07T14:19:37.642Z,2.05
2017-10-07T14:22:05.916Z,2.55
2017-10-07T14:24:34.171Z,1.85
2017-10-07T14:27:02.451Z,2.33
2017-10-07T14:29:31.474Z,4.15
2017-10-07T14:31:59.750Z,3.35
2017-10-07T14:34:28.011Z,3.75
2017-10-07T14:36:56.285Z,2.67
2017-10-07T14:39:24.552Z,2.60
2017-10-07T14:41:52.852Z,5.10
2017-10-07T14:44:21.120Z,1.73
2017-10-07T14:46:49.407Z,3.45
2017-10-07T14:49:17.698Z,2.80
2017-10-07T14:51:46.026Z,4.07
2017-10-07T14:54:15.311Z,9.60
2017-10-07T14:56:43.653Z,1.60
2017-10-07T14:59:11.918Z,2.03
2017-10-07T15:01:40.178Z,6.68
2017-10-07T15:04:08.453Z,3.25
2017-10-07T15:06:36.756Z,2.25
2017-10-07T15:09:05.036Z,2.35
2017-10-07T15:11:34.323Z,2.60
2017-10-07T15:14:03.354Z,2.47
2017-10-07T15:16:31.614Z,6.87
2017-10-07T15:18:59.898Z,2.53
2017-10-07T15:21:28.935Z,1.90
2017-10-07T15:23:57.190Z,1.62
2017-10-07T15:26:25.471Z,2.70
2017-10-07T15:28:53.735Z,3.05
2017-10-07T15:31:22.014Z,9.45
2017-10-07T15:33:50.282Z,2.87
2017-10-07T15:36:18.563Z,5.18
2017-10-07T15:38:47.603Z,2.40
2017-10-07T15:41:15.883Z,4.72
2017-10-07T15:43:44.147Z,2.28
2017-10-07T15:46:12.606Z,4.30
2017-10-07T15:48:40.866Z,5.82
2017-10-07T15:51:09.126Z,2.75
2017-10-07T15:53:37.411Z,1.90
2017-10-07T15:56:06.436Z,2.72
2017-10-07T15:58:34.719Z,2.35
2017-10-07T16:01:03.003Z,3.50
2017-10-07T16:03:31.370Z,4.75
2017-10-07T16:06:00.435Z,1.75
2017-10-07T16:08:29.602Z,5.18
2017-10-07T16:10:59.024Z,4.55
2017-10-07T16:13:28.099Z,5.03
2017-10-07T16:15:57.131Z,3.05
2017-10-07T16:18:25.399Z,3.72
2017-10-07T16:20:53.699Z,3.08
2017-10-07T16:23:22.731Z,2.58
2017-10-07T16:25:51.809Z,1.70
2017-10-07T16:28:20.075Z,3.45
2017-10-07T16:30:48.387Z,3.53
2017-10-07T16:33:17.490Z,2.47
2017-10-07T16:35:45.807Z,6.03
2017-10-07T16:38:15.788Z,3.90
2017-10-07T16:40:44.054Z,4.40
2017-10-07T16:43:12.368Z,6.37
2017-10-07T16:45:41.376Z,2.10
2017-10-07T16:48:09.672Z,2.57
2017-10-07T16:50:37.927Z,2.90
2017-10-07T16:53:06.251Z,2.33
2017-10-07T16:55:34.523Z,5.12
2017-10-07T16:58:02.795Z,4.95
2017-10-07T17:00:31.080Z,3.80
2017-10-07T17:02:59.428Z,2.80
2017-10-07T17:05:27.707Z,3.80
2017-10-07T17:07:57.566Z,8.35
2017-10-07T17:10:26.851Z,3.55
2017-10-07T17:12:55.119Z,3.87
2017-10-07T17:15:24.271Z,2.65
2017-10-07T17:20:46.852Z,2.90
2017-10-07T17:23:19.073Z,3.65
2017-10-07T17:25:47.358Z,5.30
2017-10-07T17:31:35.627Z,2.80
2017-10-07T17:34:05.415Z,3.83
2017-10-07T17:36:34.517Z,4.87
2017-10-07T17:39:02.809Z,2.33
2017-10-07T17:41:32.074Z,2.00
2017-10-07T17:44:00.449Z,2.20
2017-10-07T17:46:28.714Z,3.63
2017-10-07T17:48:59.347Z,2.85
2017-10-07T17:51:29.382Z,4.10
2017-10-07T17:53:58.686Z,2.60
2017-10-07T17:56:28.738Z,3.08
2017-10-07T17:58:57.058Z,3.08
2017-10-07T18:01:25.340Z,2.97
2017-10-07T18:03:56.175Z,2.40
2017-10-07T18:06:27.447Z,2.90
2017-10-07T18:08:55.755Z,4.30
2017-10-07T18:11:24.744Z,4.93
2017-10-07T18:13:53.404Z,2.30
2017-10-07T18:16:38.276Z,3.73
2017-10-07T18:19:12.436Z,2.55
2017-10-07T18:21:42.803Z,5.50
2017-10-07T18:24:12.687Z,7.03
2017-10-07T18:26:42.913Z,4.90
2017-10-07T18:29:11.348Z,3.70
2017-10-07T18:31:39.665Z,8.63
2017-10-07T18:34:07.939Z,2.60
2017-10-07T18:36:36.220Z,2.90
2017-10-07T18:39:04.519Z,4.32
2017-10-07T18:41:33.693Z,6.00
2017-10-07T18:44:02.754Z,3.10
2017-10-07T18:46:31.032Z,6.47
2017-10-07T18:49:00.231Z,5.40
2017-10-07T18:51:29.276Z,4.15
2017-10-07T18:53:57.587Z,5.70
2017-10-07T18:56:25.883Z,8.00
2017-10-07T18:58:54.199Z,7.40
2017-10-07T19:01:23.280Z,3.12
2017-10-07T19:03:52.326Z,2.80
2017-10-07T19:06:20.611Z,3.00
2017-10-07T19:08:49.658Z,3.87
2017-10-07T19:11:19.624Z,4.50
2017-10-07T19:13:47.916Z,2.83
2017-10-07T19:16:16.207Z,3.72
2017-10-07T19:18:45.280Z,3.03
2017-10-07T19:21:13.568Z,2.53
2017-10-07T19:23:42.626Z,4.18
2017-10-07T19:26:11.903Z,2.17
2017-10-07T19:28:40.206Z,2.30
2017-10-07T19:31:08.474Z,3.70
2017-10-07T19:33:36.818Z,1.75
2017-10-07T19:36:05.116Z,1.95
2017-10-07T19:38:33.390Z,1.45
2017-10-07T19:41:01.702Z,4.03
2017-10-07T19:43:30.748Z,2.12
2017-10-07T19:46:00.539Z,1.15
2017-10-07T19:48:28.814Z,2.10
2017-10-07T19:50:57.887Z,4.53
2017-10-07T19:53:26.163Z,2.90
2017-10-07T19:55:55.651Z,1.98
2017-10-07T19:58:25.788Z,3.80
2017-10-07T20:00:55.326Z,2.30
2017-10-07T20:03:23.628Z,2.20
2017-10-07T20:05:51.919Z,2.47
2017-10-07T20:08:20.203Z,2.20
2017-10-07T20:10:48.526Z,2.40
2017-10-07T20:13:16.819Z,2.12
2017-10-07T20:15:45.211Z,1.75
2017-10-07T20:18:21.194Z,2.55
2017-10-07T20:20:49.458Z,2.00
2017-10-07T20:23:17.892Z,3.87
2017-10-07T20:25:46.924Z,3.65
2017-10-07T20:28:15.210Z,2.87
2017-10-07T20:30:43.495Z,2.62
2017-10-07T20:33:13.443Z,3.30
2017-10-07T20:38:17.742Z,1.80
2017-10-07T20:40:46.055Z,1.50
2017-10-07T20:43:15.129Z,2.33
2017-10-07T20:45:44.203Z,3.22
2017-10-07T20:48:12.479Z,1.08
2017-10-07T20:50:41.547Z,1.57
2017-10-07T20:53:09.819Z,2.05
2017-10-07T20:55:38.871Z,1.37
2017-10-07T20:58:10.837Z,1.40
2017-10-07T21:00:39.191Z,1.20
2017-10-07T21:03:07.451Z,2.97
2017-10-07T21:05:36.087Z,1.60
2017-10-07T21:08:04.374Z,3.55
2017-10-07T21:10:32.659Z,3.70
2017-10-07T21:13:01.744Z,2.22
2017-10-07T21:15:30.031Z,2.58
2017-10-07T21:17:58.646Z,1.55
2017-10-07T21:20:26.926Z,2.75
2017-10-07T21:22:55.970Z,2.75
2017-10-07T21:25:24.285Z,3.10
2017-10-07T21:27:53.122Z,4.53
2017-10-07T21:30:22.911Z,1.55
2017-10-07T21:32:51.178Z,2.20
2017-10-07T21:35:19.463Z,4.90
2017-10-07T21:37:48.495Z,2.40
2017-10-07T21:40:16.943Z,2.87
2017-10-07T21:42:45.206Z,2.00
2017-10-07T21:45:13.480Z,1.60
2017-10-07T21:47:41.762Z,3.47
2017-10-07T21:50:10.032Z,3.85
2017-10-07T21:52:38.315Z,2.85
2017-10-07T21:55:06.579Z,2.97
2017-10-07T21:57:34.860Z,2.90
2017-10-07T22:00:03.926Z,1.95
2017-10-07T22:02:32.234Z,3.00
2017-10-07T22:05:00.491Z,3.28
2017-10-07T22:07:28.742Z,2.78
2017-10-07T22:09:57.019Z,3.65
2017-10-07T22:12:25.280Z,2.12
2017-10-07T22:14:53.598Z,6.65
2017-10-07T22:17:22.983Z,2.28
2017-10-07T22:19:52.147Z,2.10
2017-10-07T22:22:21.922Z,1.60
2017-10-07T22:24:50.179Z,1.73
2017-10-07T22:27:18.472Z,1.95
2017-10-07T22:29:46.795Z,2.72
2017-10-07T22:32:15.080Z,1.90
2017-10-07T22:34:43.351Z,1.45
2017-10-07T22:37:11.671Z,1.98
2017-10-07T22:39:39.931Z,2.15
2017-10-07T22:42:08.195Z,2.17
2017-10-07T22:44:36.482Z,1.33
2017-10-07T22:47:04.747Z,1.67
2017-10-07T22:49:33.030Z,1.40
2017-10-07T22:52:01.286Z,2.33
2017-10-07T22:54:29.591Z,1.10
2017-10-07T22:56:57.857Z,1.70
2017-10-07T22:59:26.119Z,2.12
2017-10-07T23:01:54.432Z,2.05
2017-10-07T23:04:22.706Z,2.12
2017-10-07T23:06:50.999Z,1.73
2017-10-07T23:09:19.276Z,1.73
2017-10-07T23:11:47.580Z,1.50
2017-10-07T23:14:15.832Z,4.13
2017-10-07T23:16:44.245Z,5.30
2017-10-07T23:19:12.510Z,4.25
2017-10-07T23:21:40.779Z,1.60
2017-10-07T23:24:09.054Z,3.70
2017-10-07T23:26:37.326Z,2.30
2017-10-07T23:29:05.618Z,1.83
2017-10-07T23:31:33.879Z,1.90
2017-10-07T23:34:02.171Z,4.62
2017-10-07T23:36:30.440Z,2.95
2017-10-07T23:38:58.706Z,2.45
2017-10-07T23:41:27.090Z,4.12
2017-10-07T23:43:55.363Z,2.95
2017-10-07T23:46:23.646Z,1.73
2017-10-07T23:48:52.671Z,1.97
2017-10-07T23:51:20.979Z,2.80
2017-10-07T23:53:49.247Z,1.90
2017-10-07T23:56:17.495Z,2.08
2017-10-07T23:58:45.779Z,3.83
